sensor_id;sensor_type;location;lat;lon;timestamp;P1;durP1;ratioP1;P2;durP2;ratioP2
26620;SDS011;14253;44.840;10.444;2023-07-29T00:02:10;5.30;;;2.22;;
26620;SDS011;14253;44.840;10.444;2023-07-29T00:04:36;5.53;;;2.40;;
26620;SDS011;14253;44.840;10.444;2023-07-29T00:07:02;6.43;;;2.60;;
26620;SDS011;14253;44.840;10.444;2023-07-29T00:09:28;4.93;;;2.00;;
26620;SDS011;14253;44.840;10.444;2023-07-29T00:11:54;6.38;;;2.30;;
26620;SDS011;14253;44.840;10.444;2023-07-29T00:14:19;3.53;;;2.13;;
26620;SDS011;14253;44.840;10.444;2023-07-29T00:16:46;4.88;;;2.58;;
26620;SDS011;14253;44.840;10.444;2023-07-29T00:19:11;4.18;;;2.47;;
26620;SDS011;14253;44.840;10.444;2023-07-29T00:21:37;7.00;;;2.70;;
26620;SDS011;14253;44.840;10.444;2023-07-29T00:24:03;4.50;;;2.53;;
26620;SDS011;14253;44.840;10.444;2023-07-29T00:26:29;4.30;;;2.47;;
26620;SDS011;14253;44.840;10.444;2023-07-29T00:28:57;4.07;;;2.60;;
26620;SDS011;14253;44.840;10.444;2023-07-29T00:31:23;6.10;;;2.60;;
26620;SDS011;14253;44.840;10.444;2023-07-29T00:33:50;5.45;;;2.35;;
26620;SDS011;14253;44.840;10.444;2023-07-29T00:36:18;4.32;;;2.67;;
26620;SDS011;14253;44.840;10.444;2023-07-29T00:38:44;6.03;;;2.80;;
26620;SDS011;14253;44.840;10.444;2023-07-29T00:41:10;4.88;;;2.58;;
26620;SDS011;14253;44.840;10.444;2023-07-29T00:43:40;4.22;;;2.65;;
26620;SDS011;14253;44.840;10.444;2023-07-29T00:46:07;7.30;;;2.45;;
26620;SDS011;14253;44.840;10.444;2023-07-29T00:48:35;6.22;;;2.83;;
26620;SDS011;14253;44.840;10.444;2023-07-29T00:51:01;4.75;;;2.72;;
26620;SDS011;14253;44.840;10.444;2023-07-29T00:53:27;6.97;;;2.97;;
26620;SDS011;14253;44.840;10.444;2023-07-29T00:55:53;3.90;;;2.58;;
26620;SDS011;14253;44.840;10.444;2023-07-29T00:58:20;4.57;;;2.50;;
26620;SDS011;14253;44.840;10.444;2023-07-29T01:00:46;5.32;;;3.08;;
26620;SDS011;14253;44.840;10.444;2023-07-29T01:03:12;8.00;;;2.80;;
26620;SDS011;14253;44.840;10.444;2023-07-29T01:05:42;7.53;;;3.38;;
26620;SDS011;14253;44.840;10.444;2023-07-29T01:08:28;4.03;;;2.88;;
26620;SDS011;14253;44.840;10.444;2023-07-29T01:11:38;7.03;;;3.03;;
26620;SDS011;14253;44.840;10.444;2023-07-29T01:13:58;6.30;;;3.58;;
26620;SDS011;14253;44.840;10.444;2023-07-29T01:17:00;5.50;;;2.90;;
26620;SDS011;14253;44.840;10.444;2023-07-29T01:22:18;5.72;;;3.10;;
26620;SDS011;14253;44.840;10.444;2023-07-29T01:24:46;9.32;;;3.55;;
26620;SDS011;14253;44.840;10.444;2023-07-29T01:27:12;7.50;;;3.15;;
26620;SDS011;14253;44.840;10.444;2023-07-29T01:29:39;4.68;;;3.17;;
26620;SDS011;14253;44.840;10.444;2023-07-29T01:32:14;7.40;;;3.72;;
26620;SDS011;14253;44.840;10.444;2023-07-29T01:34:53;6.35;;;3.53;;
26620;SDS011;14253;44.840;10.444;2023-07-29T01:37:29;15.85;;;3.38;;
26620;SDS011;14253;44.840;10.444;2023-07-29T01:39:58;5.40;;;3.08;;
26620;SDS011;14253;44.840;10.444;2023-07-29T01:42:25;5.70;;;3.65;;
26620;SDS011;14253;44.840;10.444;2023-07-29T01:44:52;5.15;;;3.40;;
26620;SDS011;14253;44.840;10.444;2023-07-29T01:47:18;6.35;;;3.30;;
26620;SDS011;14253;44.840;10.444;2023-07-29T01:49:45;6.30;;;3.42;;
26620;SDS011;14253;44.840;10.444;2023-07-29T01:52:13;4.68;;;3.10;;
26620;SDS011;14253;44.840;10.444;2023-07-29T01:54:39;5.82;;;3.53;;
26620;SDS011;14253;44.840;10.444;2023-07-29T01:57:05;8.85;;;3.83;;
26620;SDS011;14253;44.840;10.444;2023-07-29T01:59:31;5.40;;;3.67;;
26620;SDS011;14253;44.840;10.444;2023-07-29T02:01:59;7.55;;;3.53;;
26620;SDS011;14253;44.840;10.444;2023-07-29T02:04:25;9.63;;;4.10;;
26620;SDS011;14253;44.840;10.444;2023-07-29T02:06:51;9.35;;;3.97;;
26620;SDS011;14253;44.840;10.444;2023-07-29T02:09:17;6.45;;;3.30;;
26620;SDS011;14253;44.840;10.444;2023-07-29T02:11:43;5.57;;;3.67;;
26620;SDS011;14253;44.840;10.444;2023-07-29T02:14:09;5.95;;;3.60;;
26620;SDS011;14253;44.840;10.444;2023-07-29T02:16:35;11.27;;;3.85;;
26620;SDS011;14253;44.840;10.444;2023-07-29T02:19:02;7.75;;;3.85;;
26620;SDS011;14253;44.840;10.444;2023-07-29T02:21:28;7.22;;;3.53;;
26620;SDS011;14253;44.840;10.444;2023-07-29T02:23:55;8.65;;;3.90;;
26620;SDS011;14253;44.840;10.444;2023-07-29T02:26:21;5.78;;;4.03;;
26620;SDS011;14253;44.840;10.444;2023-07-29T02:28:48;6.30;;;3.17;;
26620;SDS011;14253;44.840;10.444;2023-07-29T02:31:15;6.75;;;3.60;;
26620;SDS011;14253;44.840;10.444;2023-07-29T02:33:48;4.43;;;3.20;;
26620;SDS011;14253;44.840;10.444;2023-07-29T02:36:15;7.10;;;3.40;;
26620;SDS011;14253;44.840;10.444;2023-07-29T02:38:42;8.75;;;3.90;;
26620;SDS011;14253;44.840;10.444;2023-07-29T02:41:09;5.72;;;3.75;;
26620;SDS011;14253;44.840;10.444;2023-07-29T02:43:38;7.20;;;3.60;;
26620;SDS011;14253;44.840;10.444;2023-07-29T02:46:04;9.05;;;3.50;;
26620;SDS011;14253;44.840;10.444;2023-07-29T02:48:30;5.75;;;3.47;;
26620;SDS011;14253;44.840;10.444;2023-07-29T02:50:57;6.70;;;3.70;;
26620;SDS011;14253;44.840;10.444;2023-07-29T02:53:23;9.98;;;4.03;;
26620;SDS011;14253;44.840;10.444;2023-07-29T02:55:50;7.03;;;3.90;;
26620;SDS011;14253;44.840;10.444;2023-07-29T02:58:16;6.85;;;3.95;;
26620;SDS011;14253;44.840;10.444;2023-07-29T03:00:42;10.27;;;4.35;;
26620;SDS011;14253;44.840;10.444;2023-07-29T03:03:09;6.90;;;4.30;;
26620;SDS011;14253;44.840;10.444;2023-07-29T03:05:35;6.22;;;4.10;;
26620;SDS011;14253;44.840;10.444;2023-07-29T03:08:02;9.10;;;4.20;;
26620;SDS011;14253;44.840;10.444;2023-07-29T03:10:28;8.70;;;4.03;;
26620;SDS011;14253;44.840;10.444;2023-07-29T03:12:54;7.82;;;4.28;;
26620;SDS011;14253;44.840;10.444;2023-07-29T03:15:24;8.10;;;4.43;;
26620;SDS011;14253;44.840;10.444;2023-07-29T03:17:51;4.40;;;3.72;;
26620;SDS011;14253;44.840;10.444;2023-07-29T03:20:18;8.68;;;4.82;;
26620;SDS011;14253;44.840;10.444;2023-07-29T03:22:45;7.47;;;4.32;;
26620;SDS011;14253;44.840;10.444;2023-07-29T03:25:12;9.30;;;4.65;;
26620;SDS011;14253;44.840;10.444;2023-07-29T03:27:38;6.95;;;5.00;;
26620;SDS011;14253;44.840;10.444;2023-07-29T03:30:05;8.80;;;5.63;;
26620;SDS011;14253;44.840;10.444;2023-07-29T03:32:32;9.00;;;5.80;;
26620;SDS011;14253;44.840;10.444;2023-07-29T03:34:59;11.25;;;6.22;;
26620;SDS011;14253;44.840;10.444;2023-07-29T03:37:25;11.63;;;5.78;;
26620;SDS011;14253;44.840;10.444;2023-07-29T03:39:51;8.88;;;5.68;;
26620;SDS011;14253;44.840;10.444;2023-07-29T03:42:17;7.35;;;5.07;;
26620;SDS011;14253;44.840;10.444;2023-07-29T03:44:43;7.47;;;5.00;;
26620;SDS011;14253;44.840;10.444;2023-07-29T03:47:09;8.02;;;5.72;;
26620;SDS011;14253;44.840;10.444;2023-07-29T03:49:38;7.30;;;5.18;;
26620;SDS011;14253;44.840;10.444;2023-07-29T03:52:05;7.05;;;5.95;;
26620;SDS011;14253;44.840;10.444;2023-07-29T03:54:32;16.13;;;7.35;;
26620;SDS011;14253;44.840;10.444;2023-07-29T03:56:58;10.93;;;6.30;;
26620;SDS011;14253;44.840;10.444;2023-07-29T03:59:24;8.98;;;5.90;;
26620;SDS011;14253;44.840;10.444;2023-07-29T04:01:50;11.02;;;6.35;;
26620;SDS011;14253;44.840;10.444;2023-07-29T04:04:16;7.75;;;6.30;;
26620;SDS011;14253;44.840;10.444;2023-07-29T04:06:42;10.60;;;6.95;;
26620;SDS011;14253;44.840;10.444;2023-07-29T04:09:08;8.25;;;6.10;;
26620;SDS011;14253;44.840;10.444;2023-07-29T04:11:34;9.88;;;6.20;;
26620;SDS011;14253;44.840;10.444;2023-07-29T04:14:00;9.00;;;5.95;;
26620;SDS011;14253;44.840;10.444;2023-07-29T04:16:26;7.45;;;5.47;;
26620;SDS011;14253;44.840;10.444;2023-07-29T04:18:53;9.63;;;6.30;;
26620;SDS011;14253;44.840;10.444;2023-07-29T04:21:20;9.32;;;6.28;;
26620;SDS011;14253;44.840;10.444;2023-07-29T04:23:46;10.88;;;6.80;;
26620;SDS011;14253;44.840;10.444;2023-07-29T04:26:11;13.57;;;7.43;;
26620;SDS011;14253;44.840;10.444;2023-07-29T04:28:37;7.85;;;5.97;;
26620;SDS011;14253;44.840;10.444;2023-07-29T04:31:04;9.75;;;5.97;;
26620;SDS011;14253;44.840;10.444;2023-07-29T04:33:31;11.05;;;6.20;;
26620;SDS011;14253;44.840;10.444;2023-07-29T04:35:57;9.88;;;6.03;;
26620;SDS011;14253;44.840;10.444;2023-07-29T04:38:26;7.00;;;5.07;;
26620;SDS011;14253;44.840;10.444;2023-07-29T04:40:57;9.05;;;5.32;;
26620;SDS011;14253;44.840;10.444;2023-07-29T04:43:26;8.30;;;5.63;;
26620;SDS011;14253;44.840;10.444;2023-07-29T04:45:53;7.38;;;5.10;;
26620;SDS011;14253;44.840;10.444;2023-07-29T04:48:19;8.25;;;5.30;;
26620;SDS011;14253;44.840;10.444;2023-07-29T04:50:45;9.10;;;5.88;;
26620;SDS011;14253;44.840;10.444;2023-07-29T04:53:12;8.98;;;4.85;;
26620;SDS011;14253;44.840;10.444;2023-07-29T04:55:38;10.02;;;4.47;;
26620;SDS011;14253;44.840;10.444;2023-07-29T04:58:07;10.05;;;5.28;;
26620;SDS011;14253;44.840;10.444;2023-07-29T05:00:35;9.48;;;4.88;;
26620;SDS011;14253;44.840;10.444;2023-07-29T05:03:02;7.80;;;5.30;;
26620;SDS011;14253;44.840;10.444;2023-07-29T05:05:28;12.15;;;5.40;;
26620;SDS011;14253;44.840;10.444;2023-07-29T05:07:54;7.07;;;4.57;;
26620;SDS011;14253;44.840;10.444;2023-07-29T05:10:20;7.18;;;4.85;;
26620;SDS011;14253;44.840;10.444;2023-07-29T05:12:46;7.10;;;5.18;;
26620;SDS011;14253;44.840;10.444;2023-07-29T05:15:12;8.38;;;5.72;;
26620;SDS011;14253;44.840;10.444;2023-07-29T05:17:38;8.10;;;5.57;;
26620;SDS011;14253;44.840;10.444;2023-07-29T05:20:04;10.48;;;5.38;;
26620;SDS011;14253;44.840;10.444;2023-07-29T05:22:31;7.57;;;4.88;;
26620;SDS011;14253;44.840;10.444;2023-07-29T05:24:57;7.18;;;5.10;;
26620;SDS011;14253;44.840;10.444;2023-07-29T05:27:23;6.47;;;4.50;;
26620;SDS011;14253;44.840;10.444;2023-07-29T05:29:49;9.32;;;4.63;;
26620;SDS011;14253;44.840;10.444;2023-07-29T05:32:15;7.32;;;5.35;;
26620;SDS011;14253;44.840;10.444;2023-07-29T05:34:41;11.90;;;5.95;;
26620;SDS011;14253;44.840;10.444;2023-07-29T05:37:07;12.05;;;5.95;;
26620;SDS011;14253;44.840;10.444;2023-07-29T05:39:33;9.40;;;6.68;;
26620;SDS011;14253;44.840;10.444;2023-07-29T05:41:59;13.13;;;6.38;;
26620;SDS011;14253;44.840;10.444;2023-07-29T05:44:28;13.65;;;6.70;;
26620;SDS011;14253;44.840;10.444;2023-07-29T05:46:55;10.63;;;6.00;;
26620;SDS011;14253;44.840;10.444;2023-07-29T05:49:22;10.27;;;7.50;;
26620;SDS011;14253;44.840;10.444;2023-07-29T05:51:48;12.23;;;7.63;;
26620;SDS011;14253;44.840;10.444;2023-07-29T05:54:17;11.25;;;7.38;;
26620;SDS011;14253;44.840;10.444;2023-07-29T05:56:43;11.07;;;7.72;;
26620;SDS011;14253;44.840;10.444;2023-07-29T05:59:09;11.57;;;7.43;;
26620;SDS011;14253;44.840;10.444;2023-07-29T06:01:35;12.55;;;8.38;;
26620;SDS011;14253;44.840;10.444;2023-07-29T06:04:01;9.25;;;7.90;;
26620;SDS011;14253;44.840;10.444;2023-07-29T06:06:28;13.23;;;7.53;;
26620;SDS011;14253;44.840;10.444;2023-07-29T06:08:54;10.82;;;7.13;;
26620;SDS011;14253;44.840;10.444;2023-07-29T06:11:20;12.15;;;6.78;;
26620;SDS011;14253;44.840;10.444;2023-07-29T06:13:47;9.13;;;7.57;;
26620;SDS011;14253;44.840;10.444;2023-07-29T06:16:14;14.23;;;7.88;;
26620;SDS011;14253;44.840;10.444;2023-07-29T06:18:40;12.00;;;6.97;;
26620;SDS011;14253;44.840;10.444;2023-07-29T06:21:06;10.98;;;7.47;;
26620;SDS011;14253;44.840;10.444;2023-07-29T06:23:35;11.50;;;6.50;;
26620;SDS011;14253;44.840;10.444;2023-07-29T06:26:01;9.73;;;6.32;;
26620;SDS011;14253;44.840;10.444;2023-07-29T06:28:27;8.50;;;6.18;;
26620;SDS011;14253;44.840;10.444;2023-07-29T06:30:54;12.70;;;6.82;;
26620;SDS011;14253;44.840;10.444;2023-07-29T06:33:19;8.25;;;5.90;;
26620;SDS011;14253;44.840;10.444;2023-07-29T06:35:45;10.15;;;6.38;;
26620;SDS011;14253;44.840;10.444;2023-07-29T06:38:11;11.48;;;6.18;;
26620;SDS011;14253;44.840;10.444;2023-07-29T06:40:37;8.25;;;5.43;;
26620;SDS011;14253;44.840;10.444;2023-07-29T06:43:03;7.20;;;5.55;;
26620;SDS011;14253;44.840;10.444;2023-07-29T06:45:29;6.82;;;4.53;;
26620;SDS011;14253;44.840;10.444;2023-07-29T06:47:55;6.85;;;4.50;;
26620;SDS011;14253;44.840;10.444;2023-07-29T06:50:21;8.45;;;4.80;;
26620;SDS011;14253;44.840;10.444;2023-07-29T06:52:47;7.80;;;4.88;;
26620;SDS011;14253;44.840;10.444;2023-07-29T06:55:13;8.30;;;5.00;;
26620;SDS011;14253;44.840;10.444;2023-07-29T06:57:39;6.47;;;4.38;;
26620;SDS011;14253;44.840;10.444;2023-07-29T07:00:06;8.70;;;4.25;;
26620;SDS011;14253;44.840;10.444;2023-07-29T07:02:34;5.97;;;3.67;;
26620;SDS011;14253;44.840;10.444;2023-07-29T07:05:00;8.32;;;4.40;;
26620;SDS011;14253;44.840;10.444;2023-07-29T07:07:26;7.47;;;4.03;;
26620;SDS011;14253;44.840;10.444;2023-07-29T07:09:52;9.00;;;5.10;;
26620;SDS011;14253;44.840;10.444;2023-07-29T07:12:18;7.15;;;4.07;;
26620;SDS011;14253;44.840;10.444;2023-07-29T07:14:44;8.45;;;4.45;;
26620;SDS011;14253;44.840;10.444;2023-07-29T07:17:10;10.70;;;4.15;;
26620;SDS011;14253;44.840;10.444;2023-07-29T07:19:36;8.77;;;4.50;;
26620;SDS011;14253;44.840;10.444;2023-07-29T07:22:02;7.32;;;4.28;;
26620;SDS011;14253;44.840;10.444;2023-07-29T07:24:29;8.07;;;4.00;;
26620;SDS011;14253;44.840;10.444;2023-07-29T07:26:55;8.70;;;4.35;;
26620;SDS011;14253;44.840;10.444;2023-07-29T07:29:21;3.90;;;3.00;;
26620;SDS011;14253;44.840;10.444;2023-07-29T07:31:51;8.52;;;3.05;;
26620;SDS011;14253;44.840;10.444;2023-07-29T07:34:18;8.05;;;3.25;;
26620;SDS011;14253;44.840;10.444;2023-07-29T07:36:48;5.43;;;3.17;;
26620;SDS011;14253;44.840;10.444;2023-07-29T07:39:15;11.10;;;3.55;;
26620;SDS011;14253;44.840;10.444;2023-07-29T07:41:41;3.42;;;2.80;;
26620;SDS011;14253;44.840;10.444;2023-07-29T07:44:07;9.25;;;2.70;;
26620;SDS011;14253;44.840;10.444;2023-07-29T07:46:34;9.07;;;2.90;;
26620;SDS011;14253;44.840;10.444;2023-07-29T07:48:59;6.03;;;2.47;;
26620;SDS011;14253;44.840;10.444;2023-07-29T07:51:25;6.30;;;3.15;;
26620;SDS011;14253;44.840;10.444;2023-07-29T07:53:52;6.90;;;2.50;;
26620;SDS011;14253;44.840;10.444;2023-07-29T07:56:18;7.35;;;3.10;;
26620;SDS011;14253;44.840;10.444;2023-07-29T07:58:44;7.78;;;3.35;;
26620;SDS011;14253;44.840;10.444;2023-07-29T08:01:10;7.53;;;3.25;;
26620;SDS011;14253;44.840;10.444;2023-07-29T08:03:37;5.82;;;2.63;;
26620;SDS011;14253;44.840;10.444;2023-07-29T08:06:03;6.50;;;3.10;;
26620;SDS011;14253;44.840;10.444;2023-07-29T08:08:29;6.22;;;2.80;;
26620;SDS011;14253;44.840;10.444;2023-07-29T08:10:56;7.05;;;3.10;;
26620;SDS011;14253;44.840;10.444;2023-07-29T08:13:23;9.75;;;3.78;;
26620;SDS011;14253;44.840;10.444;2023-07-29T08:15:51;8.38;;;3.42;;
26620;SDS011;14253;44.840;10.444;2023-07-29T08:18:18;9.60;;;3.20;;
26620;SDS011;14253;44.840;10.444;2023-07-29T08:20:54;5.10;;;3.00;;
26620;SDS011;14253;44.840;10.444;2023-07-29T08:23:24;7.78;;;3.13;;
26620;SDS011;14253;44.840;10.444;2023-07-29T08:25:53;5.85;;;3.20;;
26620;SDS011;14253;44.840;10.444;2023-07-29T08:28:22;7.55;;;3.35;;
26620;SDS011;14253;44.840;10.444;2023-07-29T08:30:48;5.30;;;2.78;;
26620;SDS011;14253;44.840;10.444;2023-07-29T08:33:14;8.27;;;3.40;;
26620;SDS011;14253;44.840;10.444;2023-07-29T08:35:40;7.28;;;3.40;;
26620;SDS011;14253;44.840;10.444;2023-07-29T08:38:08;5.32;;;2.72;;
26620;SDS011;14253;44.840;10.444;2023-07-29T08:40:34;6.28;;;2.80;;
26620;SDS011;14253;44.840;10.444;2023-07-29T08:43:05;8.07;;;2.70;;
26620;SDS011;14253;44.840;10.444;2023-07-29T08:45:34;6.60;;;2.67;;
26620;SDS011;14253;44.840;10.444;2023-07-29T08:48:02;6.13;;;2.60;;
26620;SDS011;14253;44.840;10.444;2023-07-29T08:50:32;7.80;;;2.63;;
26620;SDS011;14253;44.840;10.444;2023-07-29T08:52:59;8.90;;;3.00;;
26620;SDS011;14253;44.840;10.444;2023-07-29T08:55:26;7.07;;;3.15;;
26620;SDS011;14253;44.840;10.444;2023-07-29T08:57:52;4.70;;;3.08;;
26620;SDS011;14253;44.840;10.444;2023-07-29T09:00:19;5.75;;;3.03;;
26620;SDS011;14253;44.840;10.444;2023-07-29T09:02:46;7.70;;;2.63;;
26620;SDS011;14253;44.840;10.444;2023-07-29T09:05:12;8.73;;;2.75;;
26620;SDS011;14253;44.840;10.444;2023-07-29T09:07:39;7.18;;;3.10;;
26620;SDS011;14253;44.840;10.444;2023-07-29T09:10:08;6.25;;;3.35;;
26620;SDS011;14253;44.840;10.444;2023-07-29T09:12:36;8.23;;;3.08;;
26620;SDS011;14253;44.840;10.444;2023-07-29T09:15:02;6.95;;;3.28;;
26620;SDS011;14253;44.840;10.444;2023-07-29T09:17:31;5.35;;;2.75;;
26620;SDS011;14253;44.840;10.444;2023-07-29T09:19:58;5.25;;;2.63;;
26620;SDS011;14253;44.840;10.444;2023-07-29T09:22:24;5.65;;;2.63;;
26620;SDS011;14253;44.840;10.444;2023-07-29T09:24:53;7.07;;;2.80;;
26620;SDS011;14253;44.840;10.444;2023-07-29T09:27:25;5.95;;;2.60;;
26620;SDS011;14253;44.840;10.444;2023-07-29T09:29:53;6.15;;;2.83;;
26620;SDS011;14253;44.840;10.444;2023-07-29T09:32:22;6.53;;;2.55;;
26620;SDS011;14253;44.840;10.444;2023-07-29T09:34:50;6.78;;;2.72;;
26620;SDS011;14253;44.840;10.444;2023-07-29T09:37:23;4.78;;;2.83;;
26620;SDS011;14253;44.840;10.444;2023-07-29T09:39:49;7.18;;;2.70;;
26620;SDS011;14253;44.840;10.444;2023-07-29T09:42:19;6.40;;;3.10;;
26620;SDS011;14253;44.840;10.444;2023-07-29T09:47:23;5.45;;;2.58;;
26620;SDS011;14253;44.840;10.444;2023-07-29T09:49:50;5.70;;;2.28;;
26620;SDS011;14253;44.840;10.444;2023-07-29T09:52:18;5.05;;;2.63;;
26620;SDS011;14253;44.840;10.444;2023-07-29T09:54:45;4.15;;;2.78;;
26620;SDS011;14253;44.840;10.444;2023-07-29T09:57:15;4.03;;;2.47;;
26620;SDS011;14253;44.840;10.444;2023-07-29T09:59:43;5.88;;;2.30;;
26620;SDS011;14253;44.840;10.444;2023-07-29T10:02:22;5.72;;;2.75;;
26620;SDS011;14253;44.840;10.444;2023-07-29T10:04:50;6.57;;;2.53;;
26620;SDS011;14253;44.840;10.444;2023-07-29T10:07:17;10.55;;;2.92;;
26620;SDS011;14253;44.840;10.444;2023-07-29T10:09:45;5.78;;;2.38;;
26620;SDS011;14253;44.840;10.444;2023-07-29T10:12:11;4.07;;;2.42;;
26620;SDS011;14253;44.840;10.444;2023-07-29T10:14:38;3.50;;;2.00;;
26620;SDS011;14253;44.840;10.444;2023-07-29T10:17:06;4.45;;;2.58;;
26620;SDS011;14253;44.840;10.444;2023-07-29T10:19:34;4.22;;;2.50;;
26620;SDS011;14253;44.840;10.444;2023-07-29T10:22:02;6.97;;;2.90;;
26620;SDS011;14253;44.840;10.444;2023-07-29T10:24:30;3.92;;;2.35;;
26620;SDS011;14253;44.840;10.444;2023-07-29T10:26:58;6.88;;;2.72;;
26620;SDS011;14253;44.840;10.444;2023-07-29T10:29:28;7.10;;;2.60;;
26620;SDS011;14253;44.840;10.444;2023-07-29T10:32:01;5.82;;;1.75;;
26620;SDS011;14253;44.840;10.444;2023-07-29T10:34:29;4.97;;;2.85;;
26620;SDS011;14253;44.840;10.444;2023-07-29T10:36:56;4.30;;;2.30;;
26620;SDS011;14253;44.840;10.444;2023-07-29T10:39:24;6.32;;;2.72;;
26620;SDS011;14253;44.840;10.444;2023-07-29T10:42:01;3.58;;;2.20;;
26620;SDS011;14253;44.840;10.444;2023-07-29T10:47:12;6.85;;;2.45;;
26620;SDS011;14253;44.840;10.444;2023-07-29T10:49:46;5.22;;;2.10;;
26620;SDS011;14253;44.840;10.444;2023-07-29T10:52:16;5.85;;;3.00;;
26620;SDS011;14253;44.840;10.444;2023-07-29T10:54:52;4.32;;;2.10;;
26620;SDS011;14253;44.840;10.444;2023-07-29T10:57:51;5.25;;;2.50;;
26620;SDS011;14253;44.840;10.444;2023-07-29T11:00:10;5.90;;;3.90;;
26620;SDS011;14253;44.840;10.444;2023-07-29T11:02:41;5.10;;;2.70;;
26620;SDS011;14253;44.840;10.444;2023-07-29T11:05:07;4.78;;;2.55;;
26620;SDS011;14253;44.840;10.444;2023-07-29T11:07:46;3.22;;;2.10;;
26620;SDS011;14253;44.840;10.444;2023-07-29T11:15:13;7.15;;;2.50;;
26620;SDS011;14253;44.840;10.444;2023-07-29T11:17:43;5.25;;;2.13;;
26620;SDS011;14253;44.840;10.444;2023-07-29T11:20:11;4.72;;;2.42;;
26620;SDS011;14253;44.840;10.444;2023-07-29T11:22:38;4.10;;;2.40;;
26620;SDS011;14253;44.840;10.444;2023-07-29T11:25:05;7.30;;;2.80;;
26620;SDS011;14253;44.840;10.444;2023-07-29T11:27:33;4.25;;;2.40;;
26620;SDS011;14253;44.840;10.444;2023-07-29T11:29:59;9.45;;;2.55;;
26620;SDS011;14253;44.840;10.444;2023-07-29T11:32:26;7.75;;;2.95;;
26620;SDS011;14253;44.840;10.444;2023-07-29T11:34:52;3.85;;;2.30;;
26620;SDS011;14253;44.840;10.444;2023-07-29T11:37:19;4.13;;;2.60;;
26620;SDS011;14253;44.840;10.444;2023-07-29T11:39:46;5.38;;;2.47;;
26620;SDS011;14253;44.840;10.444;2023-07-29T11:42:13;4.30;;;2.28;;
26620;SDS011;14253;44.840;10.444;2023-07-29T11:44:40;6.63;;;2.47;;
26620;SDS011;14253;44.840;10.444;2023-07-29T11:47:06;5.53;;;2.67;;
26620;SDS011;14253;44.840;10.444;2023-07-29T11:49:37;3.53;;;2.38;;
26620;SDS011;14253;44.840;10.444;2023-07-29T11:52:08;6.43;;;2.33;;
26620;SDS011;14253;44.840;10.444;2023-07-29T11:57:08;4.93;;;2.17;;
26620;SDS011;14253;44.840;10.444;2023-07-29T11:59:35;4.70;;;2.60;;
26620;SDS011;14253;44.840;10.444;2023-07-29T12:02:05;3.90;;;2.15;;
26620;SDS011;14253;44.840;10.444;2023-07-29T12:04:35;5.75;;;2.30;;
26620;SDS011;14253;44.840;10.444;2023-07-29T12:07:01;5.10;;;2.30;;
26620;SDS011;14253;44.840;10.444;2023-07-29T12:09:28;5.88;;;2.47;;
26620;SDS011;14253;44.840;10.444;2023-07-29T12:11:54;5.47;;;2.55;;
26620;SDS011;14253;44.840;10.444;2023-07-29T12:14:20;4.88;;;2.55;;
26620;SDS011;14253;44.840;10.444;2023-07-29T12:16:47;8.38;;;2.58;;
26620;SDS011;14253;44.840;10.444;2023-07-29T12:19:15;3.42;;;2.38;;
26620;SDS011;14253;44.840;10.444;2023-07-29T12:21:43;5.18;;;2.47;;
26620;SDS011;14253;44.840;10.444;2023-07-29T12:24:09;5.47;;;2.50;;
26620;SDS011;14253;44.840;10.444;2023-07-29T12:26:39;4.47;;;2.38;;
26620;SDS011;14253;44.840;10.444;2023-07-29T12:29:15;4.57;;;2.10;;
26620;SDS011;14253;44.840;10.444;2023-07-29T12:31:42;5.45;;;2.42;;
26620;SDS011;14253;44.840;10.444;2023-07-29T12:34:08;8.20;;;2.70;;
26620;SDS011;14253;44.840;10.444;2023-07-29T12:36:44;3.72;;;2.47;;
26620;SDS011;14253;44.840;10.444;2023-07-29T12:39:20;6.88;;;2.70;;
26620;SDS011;14253;44.840;10.444;2023-07-29T12:41:48;5.28;;;2.35;;
26620;SDS011;14253;44.840;10.444;2023-07-29T12:44:15;3.88;;;2.13;;
26620;SDS011;14253;44.840;10.444;2023-07-29T12:46:41;4.13;;;2.33;;
26620;SDS011;14253;44.840;10.444;2023-07-29T12:49:07;4.07;;;2.30;;
26620;SDS011;14253;44.840;10.444;2023-07-29T12:51:33;5.30;;;2.40;;
26620;SDS011;14253;44.840;10.444;2023-07-29T12:54:00;4.53;;;2.28;;
26620;SDS011;14253;44.840;10.444;2023-07-29T12:56:26;4.72;;;2.15;;
26620;SDS011;14253;44.840;10.444;2023-07-29T12:58:52;4.78;;;2.33;;
26620;SDS011;14253;44.840;10.444;2023-07-29T13:01:18;6.70;;;2.15;;
26620;SDS011;14253;44.840;10.444;2023-07-29T13:03:44;4.78;;;2.47;;
26620;SDS011;14253;44.840;10.444;2023-07-29T13:06:10;5.05;;;2.63;;
26620;SDS011;14253;44.840;10.444;2023-07-29T13:08:36;4.10;;;1.98;;
26620;SDS011;14253;44.840;10.444;2023-07-29T13:11:03;6.32;;;2.50;;
26620;SDS011;14253;44.840;10.444;2023-07-29T13:13:29;5.30;;;2.20;;
26620;SDS011;14253;44.840;10.444;2023-07-29T13:15:56;6.93;;;2.67;;
26620;SDS011;14253;44.840;10.444;2023-07-29T13:18:23;2.58;;;1.88;;
26620;SDS011;14253;44.840;10.444;2023-07-29T13:20:48;4.18;;;2.30;;
26620;SDS011;14253;44.840;10.444;2023-07-29T13:23:15;6.82;;;2.13;;
26620;SDS011;14253;44.840;10.444;2023-07-29T13:25:41;6.88;;;2.78;;
26620;SDS011;14253;44.840;10.444;2023-07-29T13:28:10;4.35;;;2.42;;
26620;SDS011;14253;44.840;10.444;2023-07-29T13:30:38;5.63;;;2.60;;
26620;SDS011;14253;44.840;10.444;2023-07-29T13:33:05;5.03;;;2.30;;
26620;SDS011;14253;44.840;10.444;2023-07-29T13:35:32;6.78;;;2.40;;
26620;SDS011;14253;44.840;10.444;2023-07-29T13:37:59;5.63;;;2.20;;
26620;SDS011;14253;44.840;10.444;2023-07-29T13:40:25;6.05;;;2.42;;
26620;SDS011;14253;44.840;10.444;2023-07-29T13:42:51;5.28;;;2.08;;
26620;SDS011;14253;44.840;10.444;2023-07-29T13:45:18;3.97;;;2.38;;
26620;SDS011;14253;44.840;10.444;2023-07-29T13:47:44;4.28;;;2.45;;
26620;SDS011;14253;44.840;10.444;2023-07-29T13:50:10;5.13;;;2.53;;
26620;SDS011;14253;44.840;10.444;2023-07-29T13:52:37;3.65;;;2.28;;
26620;SDS011;14253;44.840;10.444;2023-07-29T13:55:04;7.15;;;2.50;;
26620;SDS011;14253;44.840;10.444;2023-07-29T13:57:31;3.85;;;2.08;;
26620;SDS011;14253;44.840;10.444;2023-07-29T13:59:57;4.00;;;2.00;;
26620;SDS011;14253;44.840;10.444;2023-07-29T14:02:23;6.03;;;2.50;;
26620;SDS011;14253;44.840;10.444;2023-07-29T14:04:53;5.05;;;2.55;;
26620;SDS011;14253;44.840;10.444;2023-07-29T14:07:19;5.03;;;2.50;;
26620;SDS011;14253;44.840;10.444;2023-07-29T14:09:45;4.10;;;2.00;;
26620;SDS011;14253;44.840;10.444;2023-07-29T14:12:12;4.40;;;2.17;;
26620;SDS011;14253;44.840;10.444;2023-07-29T14:14:42;4.63;;;2.67;;
26620;SDS011;14253;44.840;10.444;2023-07-29T14:17:08;3.13;;;2.13;;
26620;SDS011;14253;44.840;10.444;2023-07-29T14:19:35;4.45;;;2.70;;
26620;SDS011;14253;44.840;10.444;2023-07-29T14:22:02;3.75;;;2.22;;
26620;SDS011;14253;44.840;10.444;2023-07-29T14:24:28;5.28;;;2.15;;
26620;SDS011;14253;44.840;10.444;2023-07-29T14:26:54;7.18;;;2.33;;
26620;SDS011;14253;44.840;10.444;2023-07-29T14:29:20;6.15;;;2.25;;
26620;SDS011;14253;44.840;10.444;2023-07-29T14:31:45;6.78;;;2.20;;
26620;SDS011;14253;44.840;10.444;2023-07-29T14:34:12;5.82;;;2.60;;
26620;SDS011;14253;44.840;10.444;2023-07-29T14:36:37;6.65;;;2.20;;
26620;SDS011;14253;44.840;10.444;2023-07-29T14:39:03;4.38;;;2.53;;
26620;SDS011;14253;44.840;10.444;2023-07-29T14:41:30;3.65;;;2.17;;
26620;SDS011;14253;44.840;10.444;2023-07-29T14:44:02;5.22;;;2.53;;
26620;SDS011;14253;44.840;10.444;2023-07-29T14:46:30;5.72;;;2.50;;
26620;SDS011;14253;44.840;10.444;2023-07-29T14:48:56;4.57;;;2.67;;
26620;SDS011;14253;44.840;10.444;2023-07-29T14:51:22;6.63;;;2.42;;